sensor_id;sensor_type;location;lat;lon;timestamp;temperature;humidity
41953;DHT22;63613;28.200;112.870;2023-05-16T00:01:46;25.90;71.70
41953;DHT22;63613;28.200;112.870;2023-05-16T00:04:13;25.90;71.60
41953;DHT22;63613;28.200;112.870;2023-05-16T00:06:40;25.90;71.40
41953;DHT22;63613;28.200;112.870;2023-05-16T00:09:07;25.90;71.20
41953;DHT22;63613;28.200;112.870;2023-05-16T00:11:34;25.90;71.20
41953;DHT22;63613;28.200;112.870;2023-05-16T00:14:21;25.90;71.00
41953;DHT22;63613;28.200;112.870;2023-05-16T00:16:53;25.90;71.10
41953;DHT22;63613;28.200;112.870;2023-05-16T00:19:20;25.90;70.90
41953;DHT22;63613;28.200;112.870;2023-05-16T00:21:46;25.90;70.90
41953;DHT22;63613;28.200;112.870;2023-05-16T00:24:13;25.90;70.90
41953;DHT22;63613;28.200;112.870;2023-05-16T00:26:40;25.90;70.80
41953;DHT22;63613;28.200;112.870;2023-05-16T00:29:07;25.90;70.90
41953;DHT22;63613;28.200;112.870;2023-05-16T00:31:34;25.90;70.90
41953;DHT22;63613;28.200;112.870;2023-05-16T00:34:01;25.90;70.90
41953;DHT22;63613;28.200;112.870;2023-05-16T00:36:27;25.90;71.10
41953;DHT22;63613;28.200;112.870;2023-05-16T00:38:56;25.90;71.20
41953;DHT22;63613;28.200;112.870;2023-05-16T00:41:22;25.90;71.30
41953;DHT22;63613;28.200;112.870;2023-05-16T00:43:50;25.90;71.30
41953;DHT22;63613;28.200;112.870;2023-05-16T00:46:17;26.00;71.10
41953;DHT22;63613;28.200;112.870;2023-05-16T00:48:44;25.90;71.10
41953;DHT22;63613;28.200;112.870;2023-05-16T00:51:31;25.90;71.10
41953;DHT22;63613;28.200;112.870;2023-05-16T00:53:58;25.90;71.20
41953;DHT22;63613;28.200;112.870;2023-05-16T00:56:25;25.90;71.30
41953;DHT22;63613;28.200;112.870;2023-05-16T00:58:51;26.00;71.30
41953;DHT22;63613;28.200;112.870;2023-05-16T01:01:19;26.00;71.20
41953;DHT22;63613;28.200;112.870;2023-05-16T01:03:49;26.00;71.20
41953;DHT22;63613;28.200;112.870;2023-05-16T01:06:16;26.00;71.20
41953;DHT22;63613;28.200;112.870;2023-05-16T01:08:42;25.90;71.30
41953;DHT22;63613;28.200;112.870;2023-05-16T01:11:30;25.90;71.40
41953;DHT22;63613;28.200;112.870;2023-05-16T01:14:13;25.90;71.50
41953;DHT22;63613;28.200;112.870;2023-05-16T01:17:07;25.90;71.40
41953;DHT22;63613;28.200;112.870;2023-05-16T01:20:02;25.90;71.50
41953;DHT22;63613;28.200;112.870;2023-05-16T01:28:05;25.90;71.50
41953;DHT22;63613;28.200;112.870;2023-05-16T01:30:38;25.90;71.30
41953;DHT22;63613;28.200;112.870;2023-05-16T01:33:07;25.90;71.30
41953;DHT22;63613;28.200;112.870;2023-05-16T01:35:39;25.90;71.30
41953;DHT22;63613;28.200;112.870;2023-05-16T01:38:24;26.00;71.30
41953;DHT22;63613;28.200;112.870;2023-05-16T01:43:45;25.90;71.40
41953;DHT22;63613;28.200;112.870;2023-05-16T01:46:14;25.90;71.40
41953;DHT22;63613;28.200;112.870;2023-05-16T01:48:54;26.00;71.50
41953;DHT22;63613;28.200;112.870;2023-05-16T01:51:28;25.90;71.40
41953;DHT22;63613;28.200;112.870;2023-05-16T01:54:04;26.00;71.40
41953;DHT22;63613;28.200;112.870;2023-05-16T01:56:52;26.00;71.30
41953;DHT22;63613;28.200;112.870;2023-05-16T01:59:25;26.00;71.30
41953;DHT22;63613;28.200;112.870;2023-05-16T02:01:58;26.00;71.20
41953;DHT22;63613;28.200;112.870;2023-05-16T02:04:25;26.00;71.30
41953;DHT22;63613;28.200;112.870;2023-05-16T02:06:51;26.00;71.20
41953;DHT22;63613;28.200;112.870;2023-05-16T02:09:18;26.00;71.30
41953;DHT22;63613;28.200;112.870;2023-05-16T02:11:45;26.00;71.20
41953;DHT22;63613;28.200;112.870;2023-05-16T02:14:12;26.00;71.30
41953;DHT22;63613;28.200;112.870;2023-05-16T02:16:39;26.00;71.30
41953;DHT22;63613;28.200;112.870;2023-05-16T02:19:06;26.00;71.30
41953;DHT22;63613;28.200;112.870;2023-05-16T02:21:33;26.00;71.30
41953;DHT22;63613;28.200;112.870;2023-05-16T02:23:59;26.00;71.30
41953;DHT22;63613;28.200;112.870;2023-05-16T02:26:26;26.00;71.40
41953;DHT22;63613;28.200;112.870;2023-05-16T02:28:53;26.00;71.50
41953;DHT22;63613;28.200;112.870;2023-05-16T02:31:30;26.00;71.50
41953;DHT22;63613;28.200;112.870;2023-05-16T02:33:58;26.00;71.50
41953;DHT22;63613;28.200;112.870;2023-05-16T02:36:28;26.00;71.50
41953;DHT22;63613;28.200;112.870;2023-05-16T02:38:56;26.10;71.60
41953;DHT22;63613;28.200;112.870;2023-05-16T02:41:23;26.10;71.60
41953;DHT22;63613;28.200;112.870;2023-05-16T02:43:50;26.00;71.60
41953;DHT22;63613;28.200;112.870;2023-05-16T02:46:24;26.10;71.70
41953;DHT22;63613;28.200;112.870;2023-05-16T02:48:51;26.10;71.70
41953;DHT22;63613;28.200;112.870;2023-05-16T02:51:20;26.10;71.80
41953;DHT22;63613;28.200;112.870;2023-05-16T02:53:48;26.00;71.80
41953;DHT22;63613;28.200;112.870;2023-05-16T02:56:15;26.00;71.80
41953;DHT22;63613;28.200;112.870;2023-05-16T02:58:43;26.00;71.80
41953;DHT22;63613;28.200;112.870;2023-05-16T03:01:10;26.00;71.80
41953;DHT22;63613;28.200;112.870;2023-05-16T03:03:38;26.00;71.80
41953;DHT22;63613;28.200;112.870;2023-05-16T03:06:05;26.00;71.80
41953;DHT22;63613;28.200;112.870;2023-05-16T03:08:32;26.10;71.80
41953;DHT22;63613;28.200;112.870;2023-05-16T03:11:02;26.00;71.80
41953;DHT22;63613;28.200;112.870;2023-05-16T03:13:28;26.10;71.80
41953;DHT22;63613;28.200;112.870;2023-05-16T03:15:56;26.10;71.80
41953;DHT22;63613;28.200;112.870;2023-05-16T03:18:23;26.10;71.80
41953;DHT22;63613;28.200;112.870;2023-05-16T03:20:50;26.10;71.80
41953;DHT22;63613;28.200;112.870;2023-05-16T03:23:20;26.20;71.90
41953;DHT22;63613;28.200;112.870;2023-05-16T03:26:08;26.20;72.00
41953;DHT22;63613;28.200;112.870;2023-05-16T03:28:36;26.20;72.10
41953;DHT22;63613;28.200;112.870;2023-05-16T03:31:03;26.30;72.10
41953;DHT22;63613;28.200;112.870;2023-05-16T03:33:30;26.30;72.00
41953;DHT22;63613;28.200;112.870;2023-05-16T03:35:56;26.30;72.00
41953;DHT22;63613;28.200;112.870;2023-05-16T03:38:23;26.30;72.00
41953;DHT22;63613;28.200;112.870;2023-05-16T03:40:50;26.30;72.00
41953;DHT22;63613;28.200;112.870;2023-05-16T03:43:17;26.30;72.10
41953;DHT22;63613;28.200;112.870;2023-05-16T03:45:44;26.30;72.10
41953;DHT22;63613;28.200;112.870;2023-05-16T03:48:11;26.20;72.10
41953;DHT22;63613;28.200;112.870;2023-05-16T03:50:41;26.20;72.10
41953;DHT22;63613;28.200;112.870;2023-05-16T03:53:12;26.20;72.00
41953;DHT22;63613;28.200;112.870;2023-05-16T03:55:39;26.20;72.00
41953;DHT22;63613;28.200;112.870;2023-05-16T03:58:06;26.20;72.10
41953;DHT22;63613;28.200;112.870;2023-05-16T04:00:33;26.20;72.20
41953;DHT22;63613;28.200;112.870;2023-05-16T04:03:02;26.20;72.30
41953;DHT22;63613;28.200;112.870;2023-05-16T04:05:29;26.20;72.20
41953;DHT22;63613;28.200;112.870;2023-05-16T04:07:56;26.20;72.30
41953;DHT22;63613;28.200;112.870;2023-05-16T04:10:23;26.20;72.30
41953;DHT22;63613;28.200;112.870;2023-05-16T04:12:50;26.20;72.30
41953;DHT22;63613;28.200;112.870;2023-05-16T04:15:17;26.20;72.30
41953;DHT22;63613;28.200;112.870;2023-05-16T04:17:43;26.20;72.50
41953;DHT22;63613;28.200;112.870;2023-05-16T04:20:10;26.30;72.60
41953;DHT22;63613;28.200;112.870;2023-05-16T04:22:38;26.30;72.60
41953;DHT22;63613;28.200;112.870;2023-05-16T04:25:05;26.30;72.70
41953;DHT22;63613;28.200;112.870;2023-05-16T04:27:32;26.30;72.70
41953;DHT22;63613;28.200;112.870;2023-05-16T04:30:01;26.30;72.70
41953;DHT22;63613;28.200;112.870;2023-05-16T04:32:28;26.30;72.60
41953;DHT22;63613;28.200;112.870;2023-05-16T04:34:55;26.30;72.50
41953;DHT22;63613;28.200;112.870;2023-05-16T04:37:22;26.30;72.60
41953;DHT22;63613;28.200;112.870;2023-05-16T04:39:49;26.40;72.50
41953;DHT22;63613;28.200;112.870;2023-05-16T04:42:16;26.40;72.40
41953;DHT22;63613;28.200;112.870;2023-05-16T04:44:43;26.50;72.30
41953;DHT22;63613;28.200;112.870;2023-05-16T04:47:13;26.60;72.40
41953;DHT22;63613;28.200;112.870;2023-05-16T04:49:43;26.50;72.30
41953;DHT22;63613;28.200;112.870;2023-05-16T04:52:10;26.60;72.20
41953;DHT22;63613;28.200;112.870;2023-05-16T04:54:56;26.70;72.20
41953;DHT22;63613;28.200;112.870;2023-05-16T04:57:25;26.70;72.10
41953;DHT22;63613;28.200;112.870;2023-05-16T04:59:52;26.70;72.00
41953;DHT22;63613;28.200;112.870;2023-05-16T05:02:19;26.70;72.00
41953;DHT22;63613;28.200;112.870;2023-05-16T05:04:48;26.70;71.90
41953;DHT22;63613;28.200;112.870;2023-05-16T05:07:15;26.70;71.90
41953;DHT22;63613;28.200;112.870;2023-05-16T05:09:41;26.70;71.90
41953;DHT22;63613;28.200;112.870;2023-05-16T05:12:11;26.70;71.80
41953;DHT22;63613;28.200;112.870;2023-05-16T05:14:38;26.70;71.80
41953;DHT22;63613;28.200;112.870;2023-05-16T05:17:05;26.70;71.80
41953;DHT22;63613;28.200;112.870;2023-05-16T05:19:32;26.70;71.80
41953;DHT22;63613;28.200;112.870;2023-05-16T05:21:59;26.70;71.80
41953;DHT22;63613;28.200;112.870;2023-05-16T05:24:25;26.70;71.90
41953;DHT22;63613;28.200;112.870;2023-05-16T05:26:53;26.70;71.90
41953;DHT22;63613;28.200;112.870;2023-05-16T05:29:24;26.70;71.80
41953;DHT22;63613;28.200;112.870;2023-05-16T05:31:51;26.80;71.80
41953;DHT22;63613;28.200;112.870;2023-05-16T05:34:18;26.80;71.60
41953;DHT22;63613;28.200;112.870;2023-05-16T05:36:45;26.90;71.50
41953;DHT22;63613;28.200;112.870;2023-05-16T05:39:12;27.00;71.40
41953;DHT22;63613;28.200;112.870;2023-05-16T05:41:38;27.00;71.20
41953;DHT22;63613;28.200;112.870;2023-05-16T05:44:05;27.10;71.20
41953;DHT22;63613;28.200;112.870;2023-05-16T05:46:33;27.20;70.90
41953;DHT22;63613;28.200;112.870;2023-05-16T05:49:00;27.20;70.80
41953;DHT22;63613;28.200;112.870;2023-05-16T05:51:48;27.20;70.70
41953;DHT22;63613;28.200;112.870;2023-05-16T05:54:20;27.20;70.60
41953;DHT22;63613;28.200;112.870;2023-05-16T05:56:47;27.30;70.40
41953;DHT22;63613;28.200;112.870;2023-05-16T05:59:14;27.30;70.40
41953;DHT22;63613;28.200;112.870;2023-05-16T06:01:41;27.20;70.40
41953;DHT22;63613;28.200;112.870;2023-05-16T06:04:09;27.20;70.40
41953;DHT22;63613;28.200;112.870;2023-05-16T06:06:56;27.20;70.60
41953;DHT22;63613;28.200;112.870;2023-05-16T06:09:26;27.20;70.60
41953;DHT22;63613;28.200;112.870;2023-05-16T06:11:53;27.20;70.50
41953;DHT22;63613;28.200;112.870;2023-05-16T06:14:22;27.10;70.50
41953;DHT22;63613;28.200;112.870;2023-05-16T06:16:49;27.20;70.50
41953;DHT22;63613;28.200;112.870;2023-05-16T06:19:16;27.20;70.50
41953;DHT22;63613;28.200;112.870;2023-05-16T06:21:43;27.20;70.60
41953;DHT22;63613;28.200;112.870;2023-05-16T06:24:10;27.20;70.60
41953;DHT22;63613;28.200;112.870;2023-05-16T06:26:37;27.20;70.70
41953;DHT22;63613;28.200;112.870;2023-05-16T06:29:04;27.20;70.60
41953;DHT22;63613;28.200;112.870;2023-05-16T06:31:31;27.20;70.50
41953;DHT22;63613;28.200;112.870;2023-05-16T06:33:58;27.20;70.40
41953;DHT22;63613;28.200;112.870;2023-05-16T06:36:28;27.20;70.50
41953;DHT22;63613;28.200;112.870;2023-05-16T06:38:56;27.30;70.50
41953;DHT22;63613;28.200;112.870;2023-05-16T06:41:23;27.30;70.60
41953;DHT22;63613;28.200;112.870;2023-05-16T06:43:53;27.30;70.60
41953;DHT22;63613;28.200;112.870;2023-05-16T06:46:19;27.30;70.60
41953;DHT22;63613;28.200;112.870;2023-05-16T06:48:46;27.30;70.70
41953;DHT22;63613;28.200;112.870;2023-05-16T06:51:14;27.30;70.70
41953;DHT22;63613;28.200;112.870;2023-05-16T06:54:01;27.30;70.60
41953;DHT22;63613;28.200;112.870;2023-05-16T06:56:30;27.20;70.70
41953;DHT22;63613;28.200;112.870;2023-05-16T06:58:59;27.30;70.80
41953;DHT22;63613;28.200;112.870;2023-05-16T07:01:27;27.20;70.80
41953;DHT22;63613;28.200;112.870;2023-05-16T07:03:54;27.20;70.70
41953;DHT22;63613;28.200;112.870;2023-05-16T07:06:20;27.20;70.70
41953;DHT22;63613;28.200;112.870;2023-05-16T07:08:47;27.20;70.70
41953;DHT22;63613;28.200;112.870;2023-05-16T07:11:14;27.20;70.70
41953;DHT22;63613;28.200;112.870;2023-05-16T07:13:41;27.20;70.60
41953;DHT22;63613;28.200;112.870;2023-05-16T07:16:08;27.30;70.50
41953;DHT22;63613;28.200;112.870;2023-05-16T07:18:35;27.20;70.50
41953;DHT22;63613;28.200;112.870;2023-05-16T07:21:02;27.30;70.60
41953;DHT22;63613;28.200;112.870;2023-05-16T07:23:32;27.30;70.60
41953;DHT22;63613;28.200;112.870;2023-05-16T07:25:59;27.20;70.70
41953;DHT22;63613;28.200;112.870;2023-05-16T07:28:26;27.30;70.60
41953;DHT22;63613;28.200;112.870;2023-05-16T07:30:53;27.30;70.60
41953;DHT22;63613;28.200;112.870;2023-05-16T07:33:22;27.30;70.80
41953;DHT22;63613;28.200;112.870;2023-05-16T07:35:49;27.20;70.70
41953;DHT22;63613;28.200;112.870;2023-05-16T07:38:16;27.20;70.70
41953;DHT22;63613;28.200;112.870;2023-05-16T07:40:43;27.20;71.00
41953;DHT22;63613;28.200;112.870;2023-05-16T07:43:09;27.20;71.10
41953;DHT22;63613;28.200;112.870;2023-05-16T07:45:36;27.20;71.20
41953;DHT22;63613;28.200;112.870;2023-05-16T07:48:03;27.20;71.20
41953;DHT22;63613;28.200;112.870;2023-05-16T07:50:30;27.20;71.10
41953;DHT22;63613;28.200;112.870;2023-05-16T07:52:57;27.20;70.90
41953;DHT22;63613;28.200;112.870;2023-05-16T07:55:23;27.20;71.00
41953;DHT22;63613;28.200;112.870;2023-05-16T07:57:51;27.20;71.30
41953;DHT22;63613;28.200;112.870;2023-05-16T08:00:18;27.20;71.10
41953;DHT22;63613;28.200;112.870;2023-05-16T08:02:45;27.20;71.10
41953;DHT22;63613;28.200;112.870;2023-05-16T08:05:12;27.20;71.30
41953;DHT22;63613;28.200;112.870;2023-05-16T08:07:38;27.20;71.40
41953;DHT22;63613;28.200;112.870;2023-05-16T08:10:06;27.10;71.50
41953;DHT22;63613;28.200;112.870;2023-05-16T08:12:34;27.10;71.60
41953;DHT22;63613;28.200;112.870;2023-05-16T08:15:01;27.10;71.60
41953;DHT22;63613;28.200;112.870;2023-05-16T08:17:28;27.10;71.80
41953;DHT22;63613;28.200;112.870;2023-05-16T08:19:55;27.10;71.90
41953;DHT22;63613;28.200;112.870;2023-05-16T08:22:25;27.10;71.90
41953;DHT22;63613;28.200;112.870;2023-05-16T08:24:51;27.10;72.20
41953;DHT22;63613;28.200;112.870;2023-05-16T08:27:24;27.10;72.30
41953;DHT22;63613;28.200;112.870;2023-05-16T08:29:50;27.10;72.40
41953;DHT22;63613;28.200;112.870;2023-05-16T08:32:17;27.10;72.20
41953;DHT22;63613;28.200;112.870;2023-05-16T08:34:44;27.10;72.10
41953;DHT22;63613;28.200;112.870;2023-05-16T08:37:11;27.10;72.30
41953;DHT22;63613;28.200;112.870;2023-05-16T08:39:38;27.10;72.10
41953;DHT22;63613;28.200;112.870;2023-05-16T08:42:05;27.10;72.60
41953;DHT22;63613;28.200;112.870;2023-05-16T08:44:35;27.10;72.20
41953;DHT22;63613;28.200;112.870;2023-05-16T08:47:12;27.10;72.00
41953;DHT22;63613;28.200;112.870;2023-05-16T08:49:41;27.10;71.90
41953;DHT22;63613;28.200;112.870;2023-05-16T08:52:11;27.10;71.70
41953;DHT22;63613;28.200;112.870;2023-05-16T08:54:40;27.10;71.70
41953;DHT22;63613;28.200;112.870;2023-05-16T08:57:08;27.20;71.60
41953;DHT22;63613;28.200;112.870;2023-05-16T08:59:37;27.20;71.50
41953;DHT22;63613;28.200;112.870;2023-05-16T09:02:04;27.20;71.40
41953;DHT22;63613;28.200;112.870;2023-05-16T09:04:51;27.20;71.40
41953;DHT22;63613;28.200;112.870;2023-05-16T09:07:20;27.20;71.30
41953;DHT22;63613;28.200;112.870;2023-05-16T09:10:07;27.10;71.30
41953;DHT22;63613;28.200;112.870;2023-05-16T09:12:35;27.10;71.40
41953;DHT22;63613;28.200;112.870;2023-05-16T09:15:06;27.10;71.40
41953;DHT22;63613;28.200;112.870;2023-05-16T09:17:44;27.10;71.30
41953;DHT22;63613;28.200;112.870;2023-05-16T09:20:16;27.10;71.30
41953;DHT22;63613;28.200;112.870;2023-05-16T09:22:55;27.10;71.30
41953;DHT22;63613;28.200;112.870;2023-05-16T09:25:25;27.00;71.40
41953;DHT22;63613;28.200;112.870;2023-05-16T09:27:57;27.10;71.40
41953;DHT22;63613;28.200;112.870;2023-05-16T09:30:31;27.00;71.40
41953;DHT22;63613;28.200;112.870;2023-05-16T09:32:59;27.00;71.40
41953;DHT22;63613;28.200;112.870;2023-05-16T09:35:26;27.00;71.50
41953;DHT22;63613;28.200;112.870;2023-05-16T09:37:53;27.00;71.50
41953;DHT22;63613;28.200;112.870;2023-05-16T09:40:23;27.00;71.50
41953;DHT22;63613;28.200;112.870;2023-05-16T09:43:06;27.00;71.50
41953;DHT22;63613;28.200;112.870;2023-05-16T09:45:35;27.00;71.60
41953;DHT22;63613;28.200;112.870;2023-05-16T09:48:10;27.00;71.50
41953;DHT22;63613;28.200;112.870;2023-05-16T09:50:38;27.00;71.60
41953;DHT22;63613;28.200;112.870;2023-05-16T09:53:05;26.90;71.60
41953;DHT22;63613;28.200;112.870;2023-05-16T09:55:32;26.90;71.70
41953;DHT22;63613;28.200;112.870;2023-05-16T09:57:59;26.90;71.70
41953;DHT22;63613;28.200;112.870;2023-05-16T10:00:31;26.90;71.80
41953;DHT22;63613;28.200;112.870;2023-05-16T10:03:17;26.90;71.70
41953;DHT22;63613;28.200;112.870;2023-05-16T10:05:44;26.90;71.80
41953;DHT22;63613;28.200;112.870;2023-05-16T10:08:11;26.90;71.80
41953;DHT22;63613;28.200;112.870;2023-05-16T10:10:39;26.80;71.80
41953;DHT22;63613;28.200;112.870;2023-05-16T10:13:07;26.90;71.90
41953;DHT22;63613;28.200;112.870;2023-05-16T10:15:36;26.90;71.90
41953;DHT22;63613;28.200;112.870;2023-05-16T10:18:06;26.80;71.90
41953;DHT22;63613;28.200;112.870;2023-05-16T10:20:42;26.80;71.90
41953;DHT22;63613;28.200;112.870;2023-05-16T10:23:27;26.80;71.90
41953;DHT22;63613;28.200;112.870;2023-05-16T10:25:54;26.80;72.10
41953;DHT22;63613;28.200;112.870;2023-05-16T10:28:23;26.80;72.30
41953;DHT22;63613;28.200;112.870;2023-05-16T10:30:50;26.80;72.40
41953;DHT22;63613;28.200;112.870;2023-05-16T10:33:18;26.80;72.60
41953;DHT22;63613;28.200;112.870;2023-05-16T10:35:45;26.80;72.50
41953;DHT22;63613;28.200;112.870;2023-05-16T10:38:15;26.80;72.20
41953;DHT22;63613;28.200;112.870;2023-05-16T10:40:43;26.80;72.20
41953;DHT22;63613;28.200;112.870;2023-05-16T10:43:10;26.80;72.20
41953;DHT22;63613;28.200;112.870;2023-05-16T10:45:53;26.80;72.20
41953;DHT22;63613;28.200;112.870;2023-05-16T10:48:33;26.80;72.20
41953;DHT22;63613;28.200;112.870;2023-05-16T10:53:53;26.80;72.20
41953;DHT22;63613;28.200;112.870;2023-05-16T10:56:25;26.70;72.30
41953;DHT22;63613;28.200;112.870;2023-05-16T10:58:53;26.80;72.30
41953;DHT22;63613;28.200;112.870;2023-05-16T11:01:31;26.70;72.30
41953;DHT22;63613;28.200;112.870;2023-05-16T11:06:32;26.70;72.50
41953;DHT22;63613;28.200;112.870;2023-05-16T11:09:06;26.70;71.90
41953;DHT22;63613;28.200;112.870;2023-05-16T11:11:53;26.70;68.80
41953;DHT22;63613;28.200;112.870;2023-05-16T11:14:39;26.60;67.40
41953;DHT22;63613;28.200;112.870;2023-05-16T11:17:20;26.50;65.50
41953;DHT22;63613;28.200;112.870;2023-05-16T11:19:55;26.50;64.00
41953;DHT22;63613;28.200;112.870;2023-05-16T11:22:38;26.50;63.00
41953;DHT22;63613;28.200;112.870;2023-05-16T11:25:09;26.40;62.00
41953;DHT22;63613;28.200;112.870;2023-05-16T11:27:47;26.30;61.10
41953;DHT22;63613;28.200;112.870;2023-05-16T11:30:17;26.30;60.20
41953;DHT22;63613;28.200;112.870;2023-05-16T11:32:46;26.30;59.60
41953;DHT22;63613;28.200;112.870;2023-05-16T11:35:15;26.30;58.80
41953;DHT22;63613;28.200;112.870;2023-05-16T11:37:42;26.30;58.40
41953;DHT22;63613;28.200;112.870;2023-05-16T11:40:11;26.20;57.80
41953;DHT22;63613;28.200;112.870;2023-05-16T11:42:47;26.20;57.20
41953;DHT22;63613;28.200;112.870;2023-05-16T11:45:19;26.20;56.90
41953;DHT22;63613;28.200;112.870;2023-05-16T11:47:48;26.20;56.40
41953;DHT22;63613;28.200;112.870;2023-05-16T11:50:16;26.10;56.00
41953;DHT22;63613;28.200;112.870;2023-05-16T11:52:45;26.20;55.70
41953;DHT22;63613;28.200;112.870;2023-05-16T11:55:12;26.10;55.30
41953;DHT22;63613;28.200;112.870;2023-05-16T11:57:40;26.10;54.90
41953;DHT22;63613;28.200;112.870;2023-05-16T12:02:40;26.00;54.60
41953;DHT22;63613;28.200;112.870;2023-05-16T12:05:08;26.00;54.20
41953;DHT22;63613;28.200;112.870;2023-05-16T12:07:38;26.00;54.20
41953;DHT22;63613;28.200;112.870;2023-05-16T12:10:10;26.00;54.40
41953;DHT22;63613;28.200;112.870;2023-05-16T12:12:57;26.00;54.60
41953;DHT22;63613;28.200;112.870;2023-05-16T12:15:24;25.90;54.60
41953;DHT22;63613;28.200;112.870;2023-05-16T12:18:11;25.90;54.70
41953;DHT22;63613;28.200;112.870;2023-05-16T12:20:39;26.00;55.40
41953;DHT22;63613;28.200;112.870;2023-05-16T12:23:10;26.00;56.80
41953;DHT22;63613;28.200;112.870;2023-05-16T12:25:38;26.10;57.20
41953;DHT22;63613;28.200;112.870;2023-05-16T12:28:14;26.10;57.70
41953;DHT22;63613;28.200;112.870;2023-05-16T12:30:44;26.10;58.40
41953;DHT22;63613;28.200;112.870;2023-05-16T12:33:15;26.10;59.00
41953;DHT22;63613;28.200;112.870;2023-05-16T12:35:43;26.20;59.40
41953;DHT22;63613;28.200;112.870;2023-05-16T12:38:13;26.10;59.80
41953;DHT22;63613;28.200;112.870;2023-05-16T12:40:43;26.20;60.20
41953;DHT22;63613;28.200;112.870;2023-05-16T12:43:19;26.20;60.80
41953;DHT22;63613;28.200;112.870;2023-05-16T12:45:50;26.20;61.10
41953;DHT22;63613;28.200;112.870;2023-05-16T12:48:19;26.20;61.60
41953;DHT22;63613;28.200;112.870;2023-05-16T12:50:47;26.20;62.20
41953;DHT22;63613;28.200;112.870;2023-05-16T12:53:17;26.20;62.70
41953;DHT22;63613;28.200;112.870;2023-05-16T12:55:45;26.20;63.20
41953;DHT22;63613;28.200;112.870;2023-05-16T12:58:12;26.20;63.60
41953;DHT22;63613;28.200;112.870;2023-05-16T13:00:39;26.20;64.30
41953;DHT22;63613;28.200;112.870;2023-05-16T13:03:06;26.20;64.70
41953;DHT22;63613;28.200;112.870;2023-05-16T13:05:33;26.20;64.90
41953;DHT22;63613;28.200;112.870;2023-05-16T13:08:01;26.20;65.00
41953;DHT22;63613;28.200;112.870;2023-05-16T13:10:28;26.20;65.40
41953;DHT22;63613;28.200;112.870;2023-05-16T13:12:56;26.20;65.60
41953;DHT22;63613;28.200;112.870;2023-05-16T13:15:26;26.20;65.30
41953;DHT22;63613;28.200;112.870;2023-05-16T13:17:53;26.20;65.50
41953;DHT22;63613;28.200;112.870;2023-05-16T13:20:21;26.20;66.30
41953;DHT22;63613;28.200;112.870;2023-05-16T13:22:48;26.20;66.40
41953;DHT22;63613;28.200;112.870;2023-05-16T13:25:16;26.20;65.30
41953;DHT22;63613;28.200;112.870;2023-05-16T13:27:43;26.20;66.00
41953;DHT22;63613;28.200;112.870;2023-05-16T13:30:11;26.20;67.00
41953;DHT22;63613;28.200;112.870;2023-05-16T13:32:39;26.20;67.00
41953;DHT22;63613;28.200;112.870;2023-05-16T13:35:08;26.20;67.50
41953;DHT22;63613;28.200;112.870;2023-05-16T13:37:35;26.20;68.50
41953;DHT22;63613;28.200;112.870;2023-05-16T13:40:06;26.30;69.90
41953;DHT22;63613;28.200;112.870;2023-05-16T13:42:42;26.30;70.80
41953;DHT22;63613;28.200;112.870;2023-05-16T13:45:09;26.30;71.20
41953;DHT22;63613;28.200;112.870;2023-05-16T13:47:37;26.30;70.90
41953;DHT22;63613;28.200;112.870;2023-05-16T13:50:04;26.30;70.60
41953;DHT22;63613;28.200;112.870;2023-05-16T13:52:35;26.30;70.40
41953;DHT22;63613;28.200;112.870;2023-05-16T13:55:03;26.30;70.10
41953;DHT22;63613;28.200;112.870;2023-05-16T13:57:34;26.30;69.90
41953;DHT22;63613;28.200;112.870;2023-05-16T14:00:02;26.30;69.80
41953;DHT22;63613;28.200;112.870;2023-05-16T14:02:40;26.30;69.70
41953;DHT22;63613;28.200;112.870;2023-05-16T14:05:08;26.30;69.50
41953;DHT22;63613;28.200;112.870;2023-05-16T14:07:58;26.30;69.50
41953;DHT22;63613;28.200;112.870;2023-05-16T14:10:25;26.30;69.60
41953;DHT22;63613;28.200;112.870;2023-05-16T14:12:53;26.30;69.70
41953;DHT22;63613;28.200;112.870;2023-05-16T14:15:41;26.30;69.90
41953;DHT22;63613;28.200;112.870;2023-05-16T14:18:08;26.30;69.70
41953;DHT22;63613;28.200;112.870;2023-05-16T14:20:36;26.30;69.90
41953;DHT22;63613;28.200;112.870;2023-05-16T14:23:03;26.30;70.20
41953;DHT22;63613;28.200;112.870;2023-05-16T14:25:36;26.30;70.60
41953;DHT22;63613;28.200;112.870;2023-05-16T14:28:02;26.30;70.90
41953;DHT22;63613;28.200;112.870;2023-05-16T14:30:30;26.30;70.70
41953;DHT22;63613;28.200;112.870;2023-05-16T14:33:20;26.30;70.60
41953;DHT22;63613;28.200;112.870;2023-05-16T14:35:47;26.30;70.40
41953;DHT22;63613;28.200;112.870;2023-05-16T14:38:15;26.30;70.30
41953;DHT22;63613;28.200;112.870;2023-05-16T14:40:42;26.30;70.30
41953;DHT22;63613;28.200;112.870;2023-05-16T14:43:10;26.30;70.40
41953;DHT22;63613;28.200;112.870;2023-05-16T14:45:40;26.30;70.40
41953;DHT22;63613;28.200;112.870;2023-05-16T14:48:27;26.30;70.40
41953;DHT22;63613;28.200;112.870;2023-05-16T14:50:54;26.30;70.50
41953;DHT22;63613;28.200;112.870;2023-05-16T14:53:21;26.30;70.60
41953;DHT22;63613;28.200;112.870;2023-05-16T14:55:49;26.30;70.70
41953;DHT22;63613;28.200;112.870;2023-05-16T14:58:18;26.30;70.80
41953;DHT22;63613;28.200;112.870;2023-05-16T15:00:44;26.30;71.00
41953;DHT22;63613;28.200;112.870;2023-05-16T15:03:31;26.30;71.00
41953;DHT22;63613;28.200;112.870;2023-05-16T15:05:58;26.30;71.10
41953;DHT22;63613;28.200;112.870;2023-05-16T15:08:25;26.30;71.20
41953;DHT22;63613;28.200;112.870;2023-05-16T15:18:40;26.30;71.30
41953;DHT22;63613;28.200;112.870;2023-05-16T15:21:16;26.30;71.30
41953;DHT22;63613;28.200;112.870;2023-05-16T15:23:42;26.30;71.40
41953;DHT22;63613;28.200;112.870;2023-05-16T15:26:10;26.30;71.40
41953;DHT22;63613;28.200;112.870;2023-05-16T15:28:40;26.30;71.50
41953;DHT22;63613;28.200;112.870;2023-05-16T15:31:09;26.30;71.60
41953;DHT22;63613;28.200;112.870;2023-05-16T15:33:36;26.30;71.70
41953;DHT22;63613;28.200;112.870;2023-05-16T15:36:03;26.30;71.70
41953;DHT22;63613;28.200;112.870;2023-05-16T15:38:30;26.30;71.70
41953;DHT22;63613;28.200;112.870;2023-05-16T15:40:58;26.30;71.70
41953;DHT22;63613;28.200;112.870;2023-05-16T15:43:25;26.30;71.80